Terminal Aerodrome Forecast
Issued by NWS Flagstaff, AZ

Home | Current Version | Previous Version | Text Only | Print | Product List | Glossary On
Versions: 1 2 3 4 5 6 7 8 9 10 11 12 13 14 15 16 17 18 19 20 21 22 23
000
FTUS45 KFGZ 192300 CCA
TAFINW
TAF COR
KINW 192327Z 2000/2024 12010G20KT P6SM FEW120 SCT200
     FM200130 VRB03KT P6SM FEW120
     FM201800 09005KT P6SM SCT100=

USA.gov is the U.S. government's official web portal to all federal, state and local government web resources and services.